sensor_id;sensor_type;location;lat;lon;timestamp;P1;durP1;ratioP1;P2;durP2;ratioP2
20185;SDS011;10252;48.792;8.582;2022-07-21T00:00:42;16.40;;;13.43;;
20185;SDS011;10252;48.792;8.582;2022-07-21T00:05:43;15.00;;;13.30;;
20185;SDS011;10252;48.792;8.582;2022-07-21T00:10:44;15.05;;;13.02;;
20185;SDS011;10252;48.792;8.582;2022-07-21T00:15:45;15.88;;;14.27;;
20185;SDS011;10252;48.792;8.582;2022-07-21T00:20:46;17.17;;;15.40;;
20185;SDS011;10252;48.792;8.582;2022-07-21T00:25:47;15.70;;;14.07;;
20185;SDS011;10252;48.792;8.582;2022-07-21T00:30:49;17.90;;;14.73;;
20185;SDS011;10252;48.792;8.582;2022-07-21T00:35:50;17.02;;;14.48;;
20185;SDS011;10252;48.792;8.582;2022-07-21T00:40:51;14.65;;;13.05;;
20185;SDS011;10252;48.792;8.582;2022-07-21T00:45:53;17.02;;;14.55;;
20185;SDS011;10252;48.792;8.582;2022-07-21T00:50:54;17.13;;;15.32;;
20185;SDS011;10252;48.792;8.582;2022-07-21T00:55:55;16.02;;;14.45;;
20185;SDS011;10252;48.792;8.582;2022-07-21T01:00:56;15.73;;;14.15;;
20185;SDS011;10252;48.792;8.582;2022-07-21T01:05:57;15.25;;;13.65;;
20185;SDS011;10252;48.792;8.582;2022-07-21T01:10:59;14.63;;;13.23;;
20185;SDS011;10252;48.792;8.582;2022-07-21T01:16:00;14.85;;;13.35;;
20185;SDS011;10252;48.792;8.582;2022-07-21T01:21:02;15.10;;;13.38;;
20185;SDS011;10252;48.792;8.582;2022-07-21T01:26:04;15.38;;;13.82;;
20185;SDS011;10252;48.792;8.582;2022-07-21T01:31:05;15.23;;;12.50;;
20185;SDS011;10252;48.792;8.582;2022-07-21T01:36:12;16.20;;;14.40;;
20185;SDS011;10252;48.792;8.582;2022-07-21T01:41:13;16.10;;;14.10;;
20185;SDS011;10252;48.792;8.582;2022-07-21T01:46:30;17.92;;;14.65;;
20185;SDS011;10252;48.792;8.582;2022-07-21T01:51:31;15.25;;;13.70;;
20185;SDS011;10252;48.792;8.582;2022-07-21T01:56:33;15.23;;;13.73;;
20185;SDS011;10252;48.792;8.582;2022-07-21T02:01:35;16.48;;;14.52;;
20185;SDS011;10252;48.792;8.582;2022-07-21T02:06:36;14.60;;;13.05;;
20185;SDS011;10252;48.792;8.582;2022-07-21T02:11:37;15.55;;;14.05;;
20185;SDS011;10252;48.792;8.582;2022-07-21T02:16:38;16.20;;;13.88;;
20185;SDS011;10252;48.792;8.582;2022-07-21T02:21:39;15.73;;;13.98;;
20185;SDS011;10252;48.792;8.582;2022-07-21T02:26:41;15.27;;;13.63;;
20185;SDS011;10252;48.792;8.582;2022-07-21T02:31:45;15.13;;;13.52;;
20185;SDS011;10252;48.792;8.582;2022-07-21T02:36:48;17.48;;;15.05;;
20185;SDS011;10252;48.792;8.582;2022-07-21T02:41:50;18.40;;;14.73;;
20185;SDS011;10252;48.792;8.582;2022-07-21T02:46:51;16.10;;;14.43;;
20185;SDS011;10252;48.792;8.582;2022-07-21T02:51:52;16.48;;;14.75;;
20185;SDS011;10252;48.792;8.582;2022-07-21T02:56:54;14.55;;;13.15;;
20185;SDS011;10252;48.792;8.582;2022-07-21T03:01:55;15.02;;;13.52;;
20185;SDS011;10252;48.792;8.582;2022-07-21T03:06:57;16.15;;;13.55;;
20185;SDS011;10252;48.792;8.582;2022-07-21T03:11:58;15.25;;;13.63;;
20185;SDS011;10252;48.792;8.582;2022-07-21T03:16:59;17.10;;;14.73;;
20185;SDS011;10252;48.792;8.582;2022-07-21T03:22:02;15.93;;;14.30;;
20185;SDS011;10252;48.792;8.582;2022-07-21T03:27:03;16.45;;;14.63;;
20185;SDS011;10252;48.792;8.582;2022-07-21T03:32:04;16.70;;;14.95;;
20185;SDS011;10252;48.792;8.582;2022-07-21T03:37:05;17.65;;;15.32;;
20185;SDS011;10252;48.792;8.582;2022-07-21T03:42:07;16.13;;;14.52;;
20185;SDS011;10252;48.792;8.582;2022-07-21T03:47:12;16.95;;;15.15;;
20185;SDS011;10252;48.792;8.582;2022-07-21T03:52:13;19.42;;;13.98;;
20185;SDS011;10252;48.792;8.582;2022-07-21T03:57:15;18.73;;;16.75;;
20185;SDS011;10252;48.792;8.582;2022-07-21T04:02:16;16.15;;;14.48;;
20185;SDS011;10252;48.792;8.582;2022-07-21T04:07:17;20.17;;;16.00;;
20185;SDS011;10252;48.792;8.582;2022-07-21T04:12:18;16.08;;;14.40;;
20185;SDS011;10252;48.792;8.582;2022-07-21T04:17:19;16.90;;;15.13;;
20185;SDS011;10252;48.792;8.582;2022-07-21T04:22:20;17.50;;;15.68;;
20185;SDS011;10252;48.792;8.582;2022-07-21T04:27:21;16.92;;;15.15;;
20185;SDS011;10252;48.792;8.582;2022-07-21T04:32:22;17.85;;;15.27;;
20185;SDS011;10252;48.792;8.582;2022-07-21T04:37:23;22.52;;;19.83;;
20185;SDS011;10252;48.792;8.582;2022-07-21T04:42:24;17.50;;;15.45;;
20185;SDS011;10252;48.792;8.582;2022-07-21T04:47:27;16.02;;;14.15;;
20185;SDS011;10252;48.792;8.582;2022-07-21T04:52:29;15.68;;;14.18;;
20185;SDS011;10252;48.792;8.582;2022-07-21T04:57:30;18.23;;;14.63;;
20185;SDS011;10252;48.792;8.582;2022-07-21T05:02:31;18.15;;;14.32;;
20185;SDS011;10252;48.792;8.582;2022-07-21T05:07:32;15.98;;;13.48;;
20185;SDS011;10252;48.792;8.582;2022-07-21T05:12:34;15.18;;;13.65;;
20185;SDS011;10252;48.792;8.582;2022-07-21T05:17:35;15.27;;;13.57;;
20185;SDS011;10252;48.792;8.582;2022-07-21T05:22:36;13.93;;;12.52;;
20185;SDS011;10252;48.792;8.582;2022-07-21T05:27:37;14.95;;;13.05;;
20185;SDS011;10252;48.792;8.582;2022-07-21T05:32:38;15.43;;;13.82;;
20185;SDS011;10252;48.792;8.582;2022-07-21T05:37:40;16.67;;;13.02;;
20185;SDS011;10252;48.792;8.582;2022-07-21T05:42:41;15.95;;;14.23;;
20185;SDS011;10252;48.792;8.582;2022-07-21T05:47:42;14.70;;;12.48;;
20185;SDS011;10252;48.792;8.582;2022-07-21T05:52:43;15.40;;;12.52;;
20185;SDS011;10252;48.792;8.582;2022-07-21T05:57:44;14.00;;;12.52;;
20185;SDS011;10252;48.792;8.582;2022-07-21T06:02:45;15.05;;;12.93;;
20185;SDS011;10252;48.792;8.582;2022-07-21T06:07:46;11.73;;;10.45;;
20185;SDS011;10252;48.792;8.582;2022-07-21T06:12:52;10.70;;;8.73;;
20185;SDS011;10252;48.792;8.582;2022-07-21T06:17:53;9.57;;;8.25;;
20185;SDS011;10252;48.792;8.582;2022-07-21T06:22:54;9.75;;;8.32;;
20185;SDS011;10252;48.792;8.582;2022-07-21T06:27:55;7.10;;;6.40;;
20185;SDS011;10252;48.792;8.582;2022-07-21T06:32:56;8.32;;;7.53;;
20185;SDS011;10252;48.792;8.582;2022-07-21T06:37:57;8.05;;;7.28;;
20185;SDS011;10252;48.792;8.582;2022-07-21T06:42:58;8.07;;;6.93;;
20185;SDS011;10252;48.792;8.582;2022-07-21T06:48:00;8.32;;;7.45;;
20185;SDS011;10252;48.792;8.582;2022-07-21T06:53:01;9.38;;;6.82;;
20185;SDS011;10252;48.792;8.582;2022-07-21T06:58:13;7.55;;;6.80;;
20185;SDS011;10252;48.792;8.582;2022-07-21T07:03:16;7.38;;;6.57;;
20185;SDS011;10252;48.792;8.582;2022-07-21T07:08:17;10.07;;;5.32;;
20185;SDS011;10252;48.792;8.582;2022-07-21T07:13:18;7.13;;;5.70;;
20185;SDS011;10252;48.792;8.582;2022-07-21T07:18:19;5.72;;;5.22;;
20185;SDS011;10252;48.792;8.582;2022-07-21T07:23:22;7.35;;;5.15;;
20185;SDS011;10252;48.792;8.582;2022-07-21T07:28:23;6.65;;;4.75;;
20185;SDS011;10252;48.792;8.582;2022-07-21T07:33:24;5.45;;;4.82;;
20185;SDS011;10252;48.792;8.582;2022-07-21T07:38:26;4.32;;;3.92;;
20185;SDS011;10252;48.792;8.582;2022-07-21T07:43:27;5.55;;;4.32;;
20185;SDS011;10252;48.792;8.582;2022-07-21T07:48:28;5.88;;;4.35;;
20185;SDS011;10252;48.792;8.582;2022-07-21T07:53:31;6.88;;;4.15;;
20185;SDS011;10252;48.792;8.582;2022-07-21T07:58:33;5.13;;;4.53;;
20185;SDS011;10252;48.792;8.582;2022-07-21T08:03:35;7.53;;;4.93;;
20185;SDS011;10252;48.792;8.582;2022-07-21T08:08:36;6.00;;;4.63;;
20185;SDS011;10252;48.792;8.582;2022-07-21T08:13:37;4.80;;;4.35;;
20185;SDS011;10252;48.792;8.582;2022-07-21T08:18:38;4.78;;;4.38;;
20185;SDS011;10252;48.792;8.582;2022-07-21T08:23:39;5.43;;;4.93;;
20185;SDS011;10252;48.792;8.582;2022-07-21T08:28:40;6.22;;;5.18;;
20185;SDS011;10252;48.792;8.582;2022-07-21T08:33:41;6.22;;;4.80;;
20185;SDS011;10252;48.792;8.582;2022-07-21T08:38:43;7.15;;;5.32;;
20185;SDS011;10252;48.792;8.582;2022-07-21T08:43:44;7.32;;;5.10;;
20185;SDS011;10252;48.792;8.582;2022-07-21T08:48:46;5.70;;;5.15;;
20185;SDS011;10252;48.792;8.582;2022-07-21T08:53:48;5.25;;;4.72;;
20185;SDS011;10252;48.792;8.582;2022-07-21T08:58:49;5.40;;;4.90;;
20185;SDS011;10252;48.792;8.582;2022-07-21T09:03:51;4.43;;;4.03;;
20185;SDS011;10252;48.792;8.582;2022-07-21T09:08:52;5.97;;;4.55;;
20185;SDS011;10252;48.792;8.582;2022-07-21T09:14:09;5.03;;;4.13;;
20185;SDS011;10252;48.792;8.582;2022-07-21T09:24:18;4.93;;;4.25;;
20185;SDS011;10252;48.792;8.582;2022-07-21T09:29:20;5.78;;;4.30;;
20185;SDS011;10252;48.792;8.582;2022-07-21T09:34:21;5.15;;;4.40;;
20185;SDS011;10252;48.792;8.582;2022-07-21T09:44:43;5.15;;;4.50;;
20185;SDS011;10252;48.792;8.582;2022-07-21T09:49:44;4.80;;;4.40;;
20185;SDS011;10252;48.792;8.582;2022-07-21T09:54:45;5.50;;;4.68;;
20185;SDS011;10252;48.792;8.582;2022-07-21T09:59:47;6.18;;;5.18;;
20185;SDS011;10252;48.792;8.582;2022-07-21T10:05:05;5.90;;;5.05;;
20185;SDS011;10252;48.792;8.582;2022-07-21T10:10:08;4.47;;;4.07;;
20185;SDS011;10252;48.792;8.582;2022-07-21T10:15:09;5.88;;;4.88;;
20185;SDS011;10252;48.792;8.582;2022-07-21T10:20:13;5.45;;;4.32;;
20185;SDS011;10252;48.792;8.582;2022-07-21T10:25:18;5.80;;;5.30;;
20185;SDS011;10252;48.792;8.582;2022-07-21T10:30:37;4.97;;;4.47;;
20185;SDS011;10252;48.792;8.582;2022-07-21T10:35:40;5.97;;;4.85;;
20185;SDS011;10252;48.792;8.582;2022-07-21T10:40:41;5.75;;;5.05;;
20185;SDS011;10252;48.792;8.582;2022-07-21T10:45:43;5.68;;;5.15;;
20185;SDS011;10252;48.792;8.582;2022-07-21T10:50:44;5.75;;;5.18;;
20185;SDS011;10252;48.792;8.582;2022-07-21T10:55:52;6.30;;;5.80;;
20185;SDS011;10252;48.792;8.582;2022-07-21T11:00:54;7.13;;;5.53;;
20185;SDS011;10252;48.792;8.582;2022-07-21T11:11:22;7.85;;;5.75;;
20185;SDS011;10252;48.792;8.582;2022-07-21T11:21:46;6.68;;;5.20;;
20185;SDS011;10252;48.792;8.582;2022-07-21T11:26:55;6.35;;;5.75;;
20185;SDS011;10252;48.792;8.582;2022-07-21T11:31:56;10.38;;;5.95;;
20185;SDS011;10252;48.792;8.582;2022-07-21T11:36:59;5.65;;;5.05;;
20185;SDS011;10252;48.792;8.582;2022-07-21T11:42:02;5.68;;;5.18;;
20185;SDS011;10252;48.792;8.582;2022-07-21T11:47:03;5.10;;;4.70;;
20185;SDS011;10252;48.792;8.582;2022-07-21T11:52:08;5.80;;;5.30;;
20185;SDS011;10252;48.792;8.582;2022-07-21T11:57:09;5.90;;;5.40;;
20185;SDS011;10252;48.792;8.582;2022-07-21T12:02:12;6.45;;;5.85;;
20185;SDS011;10252;48.792;8.582;2022-07-21T12:07:15;5.57;;;5.07;;
20185;SDS011;10252;48.792;8.582;2022-07-21T12:12:32;6.18;;;5.55;;
20185;SDS011;10252;48.792;8.582;2022-07-21T12:17:36;7.10;;;5.78;;
20185;SDS011;10252;48.792;8.582;2022-07-21T12:22:44;6.82;;;5.50;;
20185;SDS011;10252;48.792;8.582;2022-07-21T12:27:47;6.63;;;5.18;;
20185;SDS011;10252;48.792;8.582;2022-07-21T12:32:49;4.85;;;4.45;;
20185;SDS011;10252;48.792;8.582;2022-07-21T12:38:35;4.45;;;4.05;;
20185;SDS011;10252;48.792;8.582;2022-07-21T12:43:16;5.40;;;4.45;;
20185;SDS011;10252;48.792;8.582;2022-07-21T12:48:19;5.57;;;5.07;;
20185;SDS011;10252;48.792;8.582;2022-07-21T12:53:20;5.78;;;5.20;;
20185;SDS011;10252;48.792;8.582;2022-07-21T12:58:23;5.72;;;4.95;;
20185;SDS011;10252;48.792;8.582;2022-07-21T13:03:27;5.65;;;5.07;;
20185;SDS011;10252;48.792;8.582;2022-07-21T13:08:28;5.60;;;4.95;;
20185;SDS011;10252;48.792;8.582;2022-07-21T13:13:29;5.00;;;4.60;;
20185;SDS011;10252;48.792;8.582;2022-07-21T13:18:30;5.70;;;4.63;;
20185;SDS011;10252;48.792;8.582;2022-07-21T13:23:31;4.90;;;4.50;;
20185;SDS011;10252;48.792;8.582;2022-07-21T13:28:33;5.07;;;4.60;;
20185;SDS011;10252;48.792;8.582;2022-07-21T13:33:35;5.15;;;4.43;;
20185;SDS011;10252;48.792;8.582;2022-07-21T13:38:36;4.82;;;4.43;;
20185;SDS011;10252;48.792;8.582;2022-07-21T13:43:38;4.75;;;4.28;;
20185;SDS011;10252;48.792;8.582;2022-07-21T13:48:39;4.72;;;4.18;;
20185;SDS011;10252;48.792;8.582;2022-07-21T13:53:40;5.85;;;4.80;;
20185;SDS011;10252;48.792;8.582;2022-07-21T13:58:41;4.55;;;4.15;;
20185;SDS011;10252;48.792;8.582;2022-07-21T14:03:48;4.30;;;3.95;;
20185;SDS011;10252;48.792;8.582;2022-07-21T14:08:49;4.70;;;4.22;;
20185;SDS011;10252;48.792;8.582;2022-07-21T14:13:50;4.60;;;4.20;;
20185;SDS011;10252;48.792;8.582;2022-07-21T14:18:51;4.63;;;3.88;;
20185;SDS011;10252;48.792;8.582;2022-07-21T14:23:55;5.32;;;3.97;;
20185;SDS011;10252;48.792;8.582;2022-07-21T14:29:15;4.47;;;4.07;;
20185;SDS011;10252;48.792;8.582;2022-07-21T14:34:18;4.68;;;3.42;;
20185;SDS011;10252;48.792;8.582;2022-07-21T14:39:21;6.82;;;4.15;;
20185;SDS011;10252;48.792;8.582;2022-07-21T14:44:23;6.18;;;4.28;;
20185;SDS011;10252;48.792;8.582;2022-07-21T14:49:24;4.28;;;3.88;;
20185;SDS011;10252;48.792;8.582;2022-07-21T14:54:27;4.47;;;4.03;;
20185;SDS011;10252;48.792;8.582;2022-07-21T14:59:28;4.88;;;4.10;;
20185;SDS011;10252;48.792;8.582;2022-07-21T15:04:29;4.63;;;4.25;;
20185;SDS011;10252;48.792;8.582;2022-07-21T15:09:30;4.63;;;4.22;;
20185;SDS011;10252;48.792;8.582;2022-07-21T15:14:31;4.45;;;4.10;;
20185;SDS011;10252;48.792;8.582;2022-07-21T15:19:33;6.57;;;4.35;;
20185;SDS011;10252;48.792;8.582;2022-07-21T15:24:34;5.53;;;4.25;;
20185;SDS011;10252;48.792;8.582;2022-07-21T15:29:35;5.50;;;4.30;;
20185;SDS011;10252;48.792;8.582;2022-07-21T15:34:38;4.55;;;4.03;;
20185;SDS011;10252;48.792;8.582;2022-07-21T15:39:39;5.20;;;4.47;;
20185;SDS011;10252;48.792;8.582;2022-07-21T15:44:40;4.65;;;4.15;;
20185;SDS011;10252;48.792;8.582;2022-07-21T15:49:41;4.93;;;4.47;;
20185;SDS011;10252;48.792;8.582;2022-07-21T15:54:42;5.05;;;4.35;;
20185;SDS011;10252;48.792;8.582;2022-07-21T15:59:43;4.95;;;4.47;;
20185;SDS011;10252;48.792;8.582;2022-07-21T16:04:45;6.50;;;4.80;;
20185;SDS011;10252;48.792;8.582;2022-07-21T16:09:47;5.95;;;4.60;;
20185;SDS011;10252;48.792;8.582;2022-07-21T16:14:48;4.53;;;4.13;;
20185;SDS011;10252;48.792;8.582;2022-07-21T16:19:49;5.25;;;3.80;;
20185;SDS011;10252;48.792;8.582;2022-07-21T16:24:50;4.50;;;4.07;;
20185;SDS011;10252;48.792;8.582;2022-07-21T16:29:51;4.63;;;4.10;;
20185;SDS011;10252;48.792;8.582;2022-07-21T16:34:52;5.00;;;4.10;;
20185;SDS011;10252;48.792;8.582;2022-07-21T16:39:53;4.85;;;4.38;;
20185;SDS011;10252;48.792;8.582;2022-07-21T16:44:54;5.95;;;4.47;;
20185;SDS011;10252;48.792;8.582;2022-07-21T16:49:55;5.30;;;4.20;;
20185;SDS011;10252;48.792;8.582;2022-07-21T16:54:56;4.82;;;4.35;;
20185;SDS011;10252;48.792;8.582;2022-07-21T16:59:58;6.38;;;4.25;;
20185;SDS011;10252;48.792;8.582;2022-07-21T17:04:59;4.93;;;3.90;;
20185;SDS011;10252;48.792;8.582;2022-07-21T17:10:00;4.68;;;4.20;;
20185;SDS011;10252;48.792;8.582;2022-07-21T17:15:01;5.65;;;4.70;;
20185;SDS011;10252;48.792;8.582;2022-07-21T17:20:03;5.93;;;4.43;;
20185;SDS011;10252;48.792;8.582;2022-07-21T17:25:05;6.88;;;4.70;;
20185;SDS011;10252;48.792;8.582;2022-07-21T17:30:06;5.82;;;4.70;;
20185;SDS011;10252;48.792;8.582;2022-07-21T17:35:08;4.78;;;4.22;;
20185;SDS011;10252;48.792;8.582;2022-07-21T17:40:10;4.93;;;4.53;;
20185;SDS011;10252;48.792;8.582;2022-07-21T17:45:11;5.57;;;4.85;;
20185;SDS011;10252;48.792;8.582;2022-07-21T17:50:12;5.85;;;4.28;;
20185;SDS011;10252;48.792;8.582;2022-07-21T17:55:14;4.57;;;4.18;;
20185;SDS011;10252;48.792;8.582;2022-07-21T18:00:15;5.97;;;4.82;;
20185;SDS011;10252;48.792;8.582;2022-07-21T18:05:16;6.22;;;4.88;;
20185;SDS011;10252;48.792;8.582;2022-07-21T18:10:18;7.68;;;4.65;;
20185;SDS011;10252;48.792;8.582;2022-07-21T18:15:19;5.22;;;4.55;;
20185;SDS011;10252;48.792;8.582;2022-07-21T18:20:20;4.75;;;4.30;;
20185;SDS011;10252;48.792;8.582;2022-07-21T18:25:21;4.57;;;4.10;;
20185;SDS011;10252;48.792;8.582;2022-07-21T18:30:23;5.07;;;4.53;;
20185;SDS011;10252;48.792;8.582;2022-07-21T18:35:24;5.93;;;5.13;;
20185;SDS011;10252;48.792;8.582;2022-07-21T18:40:25;6.00;;;4.93;;
20185;SDS011;10252;48.792;8.582;2022-07-21T18:45:26;5.90;;;4.60;;
20185;SDS011;10252;48.792;8.582;2022-07-21T18:50:28;6.72;;;4.57;;
20185;SDS011;10252;48.792;8.582;2022-07-21T18:55:29;6.05;;;4.70;;
20185;SDS011;10252;48.792;8.582;2022-07-21T19:00:30;5.18;;;4.65;;
20185;SDS011;10252;48.792;8.582;2022-07-21T19:05:31;6.45;;;5.13;;
20185;SDS011;10252;48.792;8.582;2022-07-21T19:10:32;6.43;;;4.90;;
20185;SDS011;10252;48.792;8.582;2022-07-21T19:15:33;4.97;;;4.47;;
20185;SDS011;10252;48.792;8.582;2022-07-21T19:20:34;5.57;;;5.07;;
20185;SDS011;10252;48.792;8.582;2022-07-21T19:25:36;5.38;;;4.88;;
20185;SDS011;10252;48.792;8.582;2022-07-21T19:30:37;6.38;;;5.30;;
20185;SDS011;10252;48.792;8.582;2022-07-21T19:35:38;6.72;;;5.57;;
20185;SDS011;10252;48.792;8.582;2022-07-21T19:40:39;6.03;;;5.45;;
20185;SDS011;10252;48.792;8.582;2022-07-21T19:45:40;5.20;;;4.70;;
20185;SDS011;10252;48.792;8.582;2022-07-21T19:50:42;7.03;;;5.47;;
20185;SDS011;10252;48.792;8.582;2022-07-21T19:55:44;6.63;;;5.40;;
20185;SDS011;10252;48.792;8.582;2022-07-21T20:00:45;6.60;;;5.45;;
20185;SDS011;10252;48.792;8.582;2022-07-21T20:05:46;8.95;;;5.40;;
20185;SDS011;10252;48.792;8.582;2022-07-21T20:10:47;7.43;;;5.38;;
20185;SDS011;10252;48.792;8.582;2022-07-21T20:15:48;6.25;;;5.65;;
20185;SDS011;10252;48.792;8.582;2022-07-21T20:20:49;8.63;;;5.78;;
20185;SDS011;10252;48.792;8.582;2022-07-21T20:25:51;7.03;;;5.03;;
20185;SDS011;10252;48.792;8.582;2022-07-21T20:30:52;7.30;;;5.53;;
20185;SDS011;10252;48.792;8.582;2022-07-21T20:35:53;6.13;;;5.47;;
20185;SDS011;10252;48.792;8.582;2022-07-21T20:40:54;6.88;;;6.25;;
20185;SDS011;10252;48.792;8.582;2022-07-21T20:45:55;6.68;;;5.63;;
20185;SDS011;10252;48.792;8.582;2022-07-21T20:50:56;6.88;;;5.88;;
20185;SDS011;10252;48.792;8.582;2022-07-21T20:55:58;7.53;;;6.53;;
20185;SDS011;10252;48.792;8.582;2022-07-21T21:00:59;7.53;;;5.75;;
20185;SDS011;10252;48.792;8.582;2022-07-21T21:06:01;6.85;;;6.15;;
20185;SDS011;10252;48.792;8.582;2022-07-21T21:11:02;8.55;;;6.15;;
20185;SDS011;10252;48.792;8.582;2022-07-21T21:16:03;6.85;;;6.22;;
20185;SDS011;10252;48.792;8.582;2022-07-21T21:21:04;6.20;;;5.60;;
20185;SDS011;10252;48.792;8.582;2022-07-21T21:26:05;6.72;;;5.90;;
20185;SDS011;10252;48.792;8.582;2022-07-21T21:31:06;7.20;;;6.50;;
20185;SDS011;10252;48.792;8.582;2022-07-21T21:36:08;8.25;;;6.80;;
20185;SDS011;10252;48.792;8.582;2022-07-21T21:41:09;6.55;;;5.95;;
20185;SDS011;10252;48.792;8.582;2022-07-21T21:46:10;7.10;;;6.40;;
20185;SDS011;10252;48.792;8.582;2022-07-21T21:51:11;6.95;;;6.22;;
20185;SDS011;10252;48.792;8.582;2022-07-21T21:56:13;7.72;;;6.55;;
20185;SDS011;10252;48.792;8.582;2022-07-21T22:01:14;9.88;;;5.95;;
20185;SDS011;10252;48.792;8.582;2022-07-21T22:06:15;7.30;;;6.50;;
20185;SDS011;10252;48.792;8.582;2022-07-21T22:11:16;7.90;;;6.30;;
20185;SDS011;10252;48.792;8.582;2022-07-21T22:16:17;7.90;;;6.55;;
20185;SDS011;10252;48.792;8.582;2022-07-21T22:21:18;8.02;;;7.00;;
20185;SDS011;10252;48.792;8.582;2022-07-21T22:26:24;6.90;;;6.30;;
20185;SDS011;10252;48.792;8.582;2022-07-21T22:31:25;7.70;;;6.97;;
20185;SDS011;10252;48.792;8.582;2022-07-21T22:36:26;8.55;;;7.65;;
20185;SDS011;10252;48.792;8.582;2022-07-21T22:41:27;10.43;;;7.20;;
20185;SDS011;10252;48.792;8.582;2022-07-21T22:46:28;6.95;;;6.35;;
20185;SDS011;10252;48.792;8.582;2022-07-21T22:51:29;7.18;;;6.47;;
20185;SDS011;10252;48.792;8.582;2022-07-21T22:56:31;7.78;;;6.50;;
20185;SDS011;10252;48.792;8.582;2022-07-21T23:01:32;7.50;;;6.68;;
20185;SDS011;10252;48.792;8.582;2022-07-21T23:06:33;7.60;;;6.90;;
20185;SDS011;10252;48.792;8.582;2022-07-21T23:11:34;7.80;;;7.05;;
20185;SDS011;10252;48.792;8.582;2022-07-21T23:16:35;11.70;;;7.32;;
20185;SDS011;10252;48.792;8.582;2022-07-21T23:21:36;8.68;;;7.88;;
20185;SDS011;10252;48.792;8.582;2022-07-21T23:26:37;7.30;;;6.68;;
20185;SDS011;10252;48.792;8.582;2022-07-21T23:31:39;8.23;;;7.35;;
20185;SDS011;10252;48.792;8.582;2022-07-21T23:36:40;8.80;;;7.65;;
20185;SDS011;10252;48.792;8.582;2022-07-21T23:41:41;8.13;;;7.30;;
20185;SDS011;10252;48.792;8.582;2022-07-21T23:46:42;8.95;;;7.20;;
20185;SDS011;10252;48.792;8.582;2022-07-21T23:51:43;9.15;;;7.28;;
20185;SDS011;10252;48.792;8.582;2022-07-21T23:56:44;10.90;;;7.88;;
